Time;durP1;ratioP1;P1;durP2;ratioP2;P2;SDS_P1;SDS_P2;PMS_P1;PMS_P2;Temp;Humidity;BMP_temperature;BMP_pressure;BME280_temperature;BME280_humidity;BME280_pressure;Samples;Min_cycle;Max_cycle;Signal;HPM_P1;HPM_P2
2023/02/26 00:00:26;;;;;;;3.90;1.77;;;;;;;2.19;69.87;98230.16;5042004;27;102751;-71
2023/02/26 00:02:54;;;;;;;2.83;1.90;;;;;;;1.90;70.29;98243.66;5048142;27;102700;-71
2023/02/26 00:05:22;;;;;;;3.03;2.03;;;;;;;1.90;68.88;98243.66;5045917;27;104024;-71
2023/02/26 00:07:50;;;;;;;2.80;2.20;;;;;;;2.00;69.28;98244.91;5044205;27;103171;-71
2023/02/26 00:10:18;;;;;;;2.50;1.70;;;;;;;1.98;69.43;98244.16;5057634;27;104247;-72
2023/02/26 00:12:46;;;;;;;3.03;1.87;;;;;;;2.07;68.00;98244.59;5042742;27;102849;-72
2023/02/26 00:15:17;;;;;;;3.20;1.93;;;;;;;2.06;68.42;98249.84;5043864;27;103388;-71
2023/02/26 00:17:52;;;;;;;1.93;1.50;;;;;;;2.55;68.40;98244.09;5046662;27;103189;-71
2023/02/26 00:20:20;;;;;;;2.37;1.80;;;;;;;2.47;66.70;98235.75;5047383;27;104461;-71
2023/02/26 00:22:49;;;;;;;3.10;1.90;;;;;;;2.55;67.55;98249.31;5048167;27;102736;-71
2023/02/26 00:25:19;;;;;;;2.40;1.77;;;;;;;2.54;66.78;98247.59;5049245;27;104154;-71
2023/02/26 00:27:47;;;;;;;2.07;1.57;;;;;;;1.95;67.45;98250.34;5043175;27;103246;-71
2023/02/26 00:30:18;;;;;;;2.97;2.13;;;;;;;2.27;67.55;98248.91;5042191;27;103003;-71
2023/02/26 00:32:50;;;;;;;2.97;1.73;;;;;;;2.06;67.63;98257.69;5044165;27;104171;-71
2023/02/26 00:35:19;;;;;;;3.30;2.13;;;;;;;2.30;67.61;98259.19;5044576;27;103301;-71
2023/02/26 00:37:58;;;;;;;3.47;1.60;;;;;;;2.27;67.72;98254.09;5061397;27;105576;-70
2023/02/26 00:40:35;;;;;;;2.90;2.00;;;;;;;2.01;67.32;98257.03;5044564;27;102563;-71
2023/02/26 00:43:05;;;;;;;3.53;2.07;;;;;;;2.03;66.57;98255.22;5041525;27;102945;-71
2023/02/26 00:45:34;;;;;;;3.73;2.03;;;;;;;1.93;67.66;98257.41;5047306;27;104023;-71
2023/02/26 00:48:22;;;;;;;4.83;2.00;;;;;;;1.87;68.32;98262.03;5049157;27;103875;-71
2023/02/26 00:50:58;;;;;;;3.20;2.00;;;;;;;1.67;68.16;98257.69;5046220;27;102656;-72
2023/02/26 00:53:32;;;;;;;2.93;2.10;;;;;;;1.63;69.41;98250.91;5041425;27;102807;-71
2023/02/26 00:56:00;;;;;;;3.77;2.00;;;;;;;1.75;68.58;98255.59;5042351;27;103274;-71
2023/02/26 00:58:28;;;;;;;3.50;1.87;;;;;;;1.51;68.13;98254.06;5040732;27;103441;-72
2023/02/26 01:00:56;;;;;;;4.50;1.73;;;;;;;1.49;68.47;98251.50;5042550;27;103074;-71
2023/02/26 01:03:26;;;;;;;3.53;2.10;;;;;;;1.50;67.62;98255.81;5052930;27;102839;-71
2023/02/26 01:05:54;;;;;;;3.77;2.17;;;;;;;1.26;68.23;98250.81;5046492;27;104071;-71
2023/02/26 01:08:29;;;;;;;3.97;2.00;;;;;;;1.35;68.63;98255.63;5044847;27;104695;-70
2023/02/26 01:10:58;;;;;;;3.07;1.77;;;;;;;1.31;69.85;98260.13;5046363;27;102943;-70
2023/02/26 01:13:28;;;;;;;2.57;1.80;;;;;;;1.71;69.08;98254.88;5047600;27;102799;-71
2023/02/26 01:16:04;;;;;;;2.63;1.70;;;;;;;1.68;68.51;98255.00;5045704;27;102979;-70
2023/02/26 01:18:41;;;;;;;2.60;1.60;;;;;;;1.59;69.69;98250.22;5049336;27;103273;-71
2023/02/26 01:21:14;;;;;;;3.50;1.87;;;;;;;1.64;68.05;98253.47;5040062;27;102672;-71
2023/02/26 01:23:51;;;;;;;3.17;1.90;;;;;;;1.95;68.01;98258.16;5040121;27;102723;-71
2023/02/26 01:26:22;;;;;;;1.93;1.70;;;;;;;1.74;66.79;98254.75;5049704;27;103437;-71
2023/02/26 01:28:52;;;;;;;4.00;1.87;;;;;;;1.62;68.64;98255.28;5048510;27;104420;-70
2023/02/26 01:31:32;;;;;;;4.13;1.80;;;;;;;1.77;67.99;98260.75;5043647;27;102771;-71
2023/02/26 01:34:07;;;;;;;2.37;2.00;;;;;;;1.60;67.51;98249.28;5043922;27;104132;-71
2023/02/26 01:36:41;;;;;;;2.57;1.70;;;;;;;1.53;67.91;98250.47;5048420;27;103425;-71
2023/02/26 01:39:19;;;;;;;3.87;1.53;;;;;;;1.89;67.27;98258.44;5042154;27;103249;-71
2023/02/26 01:41:52;;;;;;;3.57;1.97;;;;;;;2.06;67.65;98253.31;5036031;27;102694;-71
2023/02/26 01:44:27;;;;;;;3.70;2.10;;;;;;;2.01;66.71;98262.25;5027210;27;102824;-71
2023/02/26 01:47:10;;;;;;;3.20;1.73;;;;;;;1.96;66.50;98262.47;5030051;27;103273;-71
2023/02/26 01:49:42;;;;;;;2.30;1.50;;;;;;;2.03;67.57;98255.22;5031413;27;103228;-71
2023/02/26 01:52:56;;;;;;;3.20;1.70;;;;;;;2.03;66.56;98260.41;5031410;27;102592;-72
2023/02/26 01:55:26;;;;;;;1.73;1.40;;;;;;;2.01;66.22;98262.25;5004702;27;103930;-72
2023/02/26 01:57:58;;;;;;;1.97;1.27;;;;;;;2.09;67.56;98265.34;5027033;27;103222;-72
2023/02/26 02:00:26;;;;;;;3.10;1.80;;;;;;;2.02;65.97;98262.16;5030234;27;103214;-71
2023/02/26 02:02:54;;;;;;;2.83;1.80;;;;;;;1.97;66.58;98261.53;5031005;27;102589;-71
2023/02/26 02:05:28;;;;;;;1.80;1.40;;;;;;;2.01;66.77;98263.09;5023997;27;102976;-71
2023/02/26 02:07:57;;;;;;;2.00;1.70;;;;;;;1.88;66.99;98261.13;5032144;27;103942;-71
2023/02/26 02:10:25;;;;;;;2.20;1.67;;;;;;;1.92;67.29;98267.88;5030023;27;104593;-71
2023/02/26 02:13:09;;;;;;;4.37;1.90;;;;;;;1.91;67.40;98261.81;5030682;27;102518;-72
2023/02/26 02:15:46;;;;;;;1.80;1.40;;;;;;;1.88;68.03;98258.50;5026184;27;104149;-71
2023/02/26 02:18:21;;;;;;;1.77;1.30;;;;;;;1.89;68.02;98262.78;5030019;27;103218;-71
2023/02/26 02:21:06;;;;;;;2.77;1.37;;;;;;;1.84;67.50;98259.56;5024150;27;103193;-71
2023/02/26 02:23:40;;;;;;;3.43;1.83;;;;;;;1.76;66.79;98267.72;5032338;27;102606;-72
2023/02/26 02:26:50;;;;;;;2.37;1.50;;;;;;;1.79;67.38;98269.34;5033401;27;103931;-71
2023/02/26 02:29:53;;;;;;;2.20;1.70;;;;;;;1.64;66.20;98268.25;5025181;27;104097;-71
2023/02/26 02:32:28;;;;;;;4.63;1.70;;;;;;;1.61;67.59;98279.63;5024232;27;103374;-71
2023/02/26 02:35:06;;;;;;;1.50;1.40;;;;;;;1.53;67.72;98271.31;5032880;27;102771;-71
2023/02/26 02:37:40;;;;;;;3.43;1.77;;;;;;;1.72;67.48;98271.34;5045753;27;102770;-71
2023/02/26 02:40:14;;;;;;;2.40;1.30;;;;;;;1.74;67.88;98280.78;5029374;27;103229;-71
2023/02/26 02:42:46;;;;;;;2.23;1.80;;;;;;;1.45;70.10;98289.00;5028526;27;104102;-71
2023/02/26 02:45:20;;;;;;;2.50;1.40;;;;;;;1.57;69.67;98288.47;5022421;27;102607;-71
2023/02/26 02:47:55;;;;;;;2.10;1.70;;;;;;;1.59;69.15;98288.44;5029922;27;102654;-71
2023/02/26 02:50:28;;;;;;;3.50;1.90;;;;;;;1.57;68.81;98291.06;5026200;27;103687;-71
2023/02/26 02:53:00;;;;;;;1.43;1.33;;;;;;;1.58;69.22;98292.78;5026807;27;103350;-72
2023/02/26 02:55:34;;;;;;;4.00;1.70;;;;;;;1.33;68.38;98299.09;5028473;27;102700;-72
2023/02/26 02:58:06;;;;;;;3.20;1.93;;;;;;;1.33;69.53;98288.66;5027051;27;103976;-71
2023/02/26 03:00:41;;;;;;;2.77;1.77;;;;;;;1.38;69.31;98295.38;5029279;27;104029;-71
2023/02/26 03:03:17;;;;;;;2.73;2.10;;;;;;;1.16;68.54;98302.38;5025603;27;103559;-70
2023/02/26 03:05:49;;;;;;;2.50;1.80;;;;;;;0.97;70.06;98302.28;5029913;27;102588;-71
2023/02/26 03:08:23;;;;;;;1.83;1.63;;;;;;;1.18;70.50;98306.59;5030508;27;103731;-71
2023/02/26 03:10:51;;;;;;;2.37;1.73;;;;;;;1.15;70.17;98309.34;5022718;27;103270;-71
2023/02/26 03:13:22;;;;;;;3.43;1.80;;;;;;;1.10;68.85;98302.63;5022310;27;103478;-72
2023/02/26 03:16:08;;;;;;;2.27;2.00;;;;;;;1.14;69.08;98317.22;5025713;27;103226;-71
2023/02/26 03:18:50;;;;;;;1.83;1.50;;;;;;;1.19;68.60;98312.66;5033067;27;102668;-71
2023/02/26 03:21:27;;;;;;;2.33;1.90;;;;;;;1.30;68.58;98310.47;5030131;27;103586;-71
2023/02/26 03:24:01;;;;;;;4.60;1.60;;;;;;;1.43;68.63;98316.03;5032102;27;103572;-71
2023/02/26 03:26:34;;;;;;;2.43;1.80;;;;;;;1.45;68.47;98304.63;5027099;27;102844;-70
2023/02/26 03:29:10;;;;;;;2.83;2.27;;;;;;;1.38;69.37;98311.00;5033703;27;103872;-71
2023/02/26 03:31:46;;;;;;;2.10;1.73;;;;;;;1.45;69.70;98304.63;5033666;27;105306;-70
2023/02/26 03:34:22;;;;;;;4.90;2.30;;;;;;;1.35;69.04;98313.72;5025535;27;103249;-71
2023/02/26 03:36:56;;;;;;;4.13;2.10;;;;;;;1.34;69.72;98322.47;5021760;27;102679;-72
2023/02/26 03:39:34;;;;;;;3.53;2.07;;;;;;;1.15;68.79;98316.31;5030666;27;104117;-71
2023/02/26 03:42:08;;;;;;;2.73;2.10;;;;;;;0.97;69.25;98322.25;5025050;27;103191;-71
2023/02/26 03:44:52;;;;;;;2.27;1.80;;;;;;;0.88;69.98;98322.59;5020471;27;103304;-71
2023/02/26 03:47:21;;;;;;;4.47;3.10;;;;;;;0.80;69.64;98317.72;5021458;27;103689;-70
2023/02/26 03:49:57;;;;;;;3.80;2.70;;;;;;;0.59;70.68;98321.97;5023118;27;103041;-70
2023/02/26 03:52:27;;;;;;;6.93;4.27;;;;;;;0.58;70.40;98328.09;5027556;27;103824;-71
2023/02/26 03:55:10;;;;;;;8.77;5.60;;;;;;;0.68;71.02;98328.59;5023439;27;103209;-71
2023/02/26 03:57:57;;;;;;;4.30;3.00;;;;;;;0.75;70.54;98337.00;5019527;27;102595;-70
2023/02/26 04:00:43;;;;;;;2.90;2.53;;;;;;;0.72;70.36;98337.13;5019681;27;102616;-71
2023/02/26 04:03:19;;;;;;;3.83;2.20;;;;;;;0.84;69.97;98334.88;5031625;27;104183;-70
2023/02/26 04:05:51;;;;;;;2.77;2.23;;;;;;;1.03;69.94;98332.41;5018888;27;103195;-71
2023/02/26 04:08:21;;;;;;;3.50;2.17;;;;;;;0.93;69.19;98338.88;5036545;27;102715;-71
2023/02/26 04:11:06;;;;;;;2.77;2.10;;;;;;;1.01;69.46;98334.25;5027747;27;102882;-71
2023/02/26 04:13:34;;;;;;;2.37;1.70;;;;;;;0.98;70.25;98339.56;5028472;27;103237;-71
2023/02/26 04:16:02;;;;;;;2.60;1.60;;;;;;;0.85;70.54;98343.53;5023048;27;105172;-71
2023/02/26 04:18:30;;;;;;;2.33;1.97;;;;;;;0.91;70.56;98344.16;5021941;27;102682;-71
2023/02/26 04:20:59;;;;;;;3.03;2.00;;;;;;;1.02;70.33;98346.31;5022154;27;102644;-71
2023/02/26 04:23:27;;;;;;;4.33;1.90;;;;;;;0.92;69.34;98347.59;5033921;27;103860;-71
2023/02/26 04:25:57;;;;;;;3.13;1.90;;;;;;;0.84;69.48;98341.84;5020435;27;105576;-71
2023/02/26 04:28:25;;;;;;;2.33;1.90;;;;;;;0.84;69.40;98347.06;5048116;27;103054;-71
2023/02/26 04:30:53;;;;;;;3.43;2.40;;;;;;;0.84;68.88;98354.84;5037431;27;103555;-71
2023/02/26 04:33:23;;;;;;;3.20;1.63;;;;;;;0.82;69.39;98348.84;5026561;27;103380;-71
2023/02/26 04:35:51;;;;;;;3.90;1.97;;;;;;;0.83;69.26;98345.34;5029487;27;105075;-71
2023/02/26 04:38:21;;;;;;;4.17;2.10;;;;;;;0.73;69.62;98359.63;5034297;27;102707;-71
2023/02/26 04:40:49;;;;;;;2.73;1.70;;;;;;;0.79;70.36;98365.41;5028502;27;103078;-72
2023/02/26 04:43:18;;;;;;;2.60;1.73;;;;;;;0.82;70.52;98372.25;5031622;27;104193;-71
2023/02/26 04:46:02;;;;;;;1.90;1.53;;;;;;;0.88;70.84;98372.03;5020135;27;103160;-71
2023/02/26 04:48:31;;;;;;;2.50;1.80;;;;;;;0.76;70.45;98377.72;5032629;27;102716;-71
2023/02/26 04:50:59;;;;;;;3.40;2.30;;;;;;;0.68;70.33;98392.72;5023359;27;102689;-71
2023/02/26 04:53:28;;;;;;;3.73;1.83;;;;;;;0.56;71.53;98384.47;5036908;27;103206;-72
2023/02/26 04:55:56;;;;;;;7.23;2.50;;;;;;;0.15;71.00;98390.34;5015077;27;105381;-71
2023/02/26 04:58:24;;;;;;;3.60;2.40;;;;;;;0.25;73.09;98381.34;5033751;27;102772;-70
2023/02/26 05:00:56;;;;;;;4.33;2.30;;;;;;;0.34;72.35;98382.72;5020179;27;104225;-70
2023/02/26 05:03:25;;;;;;;2.78;2.30;;;;;;;0.79;71.27;98374.97;5020205;27;105421;-71
2023/02/26 05:05:53;;;;;;;4.03;2.23;;;;;;;0.71;70.61;98377.03;5023404;27;103224;-71
2023/02/26 05:08:21;;;;;;;2.00;1.80;;;;;;;0.70;70.97;98386.59;5023524;27;102710;-71
2023/02/26 05:10:52;;;;;;;3.77;2.00;;;;;;;0.32;69.83;98382.81;5019644;27;102689;-71
2023/02/26 05:13:20;;;;;;;4.80;2.17;;;;;;;0.21;71.33;98392.72;5028498;27;103841;-71
2023/02/26 05:15:48;;;;;;;5.90;2.20;;;;;;;0.24;71.48;98387.44;5020822;27;105933;-70
2023/02/26 05:18:15;;;;;;;4.40;2.03;;;;;;;-0.49;73.09;98396.91;5023203;27;102823;-71
2023/02/26 05:20:43;;;;;;;3.43;1.63;;;;;;;-0.20;73.43;98393.34;5019780;27;102745;-71
2023/02/26 05:23:11;;;;;;;7.73;2.27;;;;;;;-0.43;73.26;98396.72;5029222;27;103284;-71
2023/02/26 05:25:39;;;;;;;2.73;2.00;;;;;;;-0.27;72.02;98394.44;5022817;27;104050;-71
2023/02/26 05:28:08;;;;;;;2.80;1.83;;;;;;;-0.63;73.53;98399.94;5025398;27;102738;-71
2023/02/26 05:30:36;;;;;;;1.43;1.33;;;;;;;-0.65;74.48;98399.16;5020553;27;104256;-71
2023/02/26 05:33:04;;;;;;;2.20;1.63;;;;;;;-0.32;73.60;98411.91;5026203;27;103225;-71
2023/02/26 05:35:34;;;;;;;2.03;1.63;;;;;;;0.06;72.72;98411.44;5026464;27;103291;-71
2023/02/26 05:38:01;;;;;;;2.73;1.80;;;;;;;0.14;72.37;98414.63;5030841;27;102626;-71
2023/02/26 05:40:29;;;;;;;3.90;1.73;;;;;;;0.03;72.11;98421.94;5020059;27;103783;-71
2023/02/26 05:42:57;;;;;;;3.30;1.60;;;;;;;-0.29;72.71;98427.41;5020222;27;104032;-70
2023/02/26 05:45:26;;;;;;;2.00;1.73;;;;;;;0.05;72.22;98422.75;5024246;27;103012;-71
2023/02/26 05:47:54;;;;;;;5.33;1.53;;;;;;;0.12;72.04;98424.22;5035662;27;102656;-71
2023/02/26 05:50:22;;;;;;;3.73;1.90;;;;;;;0.28;71.77;98425.38;5038740;27;102871;-70
2023/02/26 05:52:50;;;;;;;3.60;1.90;;;;;;;0.03;71.81;98440.13;5038330;27;104204;-72
2023/02/26 05:55:18;;;;;;;4.10;1.90;;;;;;;0.04;72.65;98438.38;5034339;27;104427;-71
2023/02/26 05:57:46;;;;;;;2.80;1.90;;;;;;;0.24;72.12;98428.16;5047008;27;102775;-72
2023/02/26 06:00:14;;;;;;;2.60;1.70;;;;;;;0.20;71.89;98440.41;5037810;27;102623;-70
2023/02/26 06:02:44;;;;;;;3.83;1.70;;;;;;;0.30;72.00;98439.19;5040532;27;103255;-70
2023/02/26 06:05:11;;;;;;;4.90;1.93;;;;;;;0.34;71.72;98450.28;5037064;27;103299;-71
2023/02/26 06:07:39;;;;;;;2.10;1.50;;;;;;;0.35;72.04;98447.66;5042861;27;102709;-70
2023/02/26 06:10:08;;;;;;;3.07;1.80;;;;;;;0.39;71.84;98459.63;5049155;27;102971;-71
2023/02/26 06:12:36;;;;;;;2.87;1.87;;;;;;;0.38;71.47;98452.75;5036709;27;103229;-77
2023/02/26 06:15:06;;;;;;;3.60;2.17;;;;;;;0.11;70.87;98464.13;5041581;27;104309;-76
2023/02/26 06:17:34;;;;;;;2.60;1.73;;;;;;;0.09;71.51;98470.22;5040717;27;102946;-77
2023/02/26 06:20:06;;;;;;;3.53;2.03;;;;;;;-0.01;72.29;98469.72;5047872;27;102627;-78
2023/02/26 06:22:34;;;;;;;3.73;1.90;;;;;;;0.06;72.07;98473.78;5051728;27;104277;-77
2023/02/26 06:25:02;;;;;;;2.80;1.97;;;;;;;-0.01;72.09;98485.31;5037814;27;103488;-79
2023/02/26 06:27:32;;;;;;;2.70;1.90;;;;;;;-0.02;72.59;98484.44;5040608;27;102674;-80
2023/02/26 06:29:59;;;;;;;3.40;2.00;;;;;;;-0.23;73.31;98490.38;5030554;27;102788;-75
2023/02/26 06:32:27;;;;;;;5.33;2.33;;;;;;;-0.17;73.09;98494.50;5028426;27;103305;-76
2023/02/26 06:34:57;;;;;;;3.67;2.20;;;;;;;-0.05;72.96;98494.09;5030159;27;103198;-76
2023/02/26 06:37:26;;;;;;;3.33;2.00;;;;;;;-0.22;73.56;98506.75;5031669;27;102679;-77
2023/02/26 06:39:54;;;;;;;2.70;2.03;;;;;;;-0.64;74.41;98503.78;5035329;27;103856;-75
2023/02/26 06:42:22;;;;;;;2.97;1.87;;;;;;;-0.56;74.89;98506.97;5030482;27;103288;-75
2023/02/26 06:44:50;;;;;;;3.73;2.60;;;;;;;-0.66;74.43;98515.94;5033372;27;103229;-78
2023/02/26 06:47:18;;;;;;;3.03;2.33;;;;;;;-0.35;74.78;98516.72;5031834;27;102909;-73
2023/02/26 06:49:45;;;;;;;4.37;2.47;;;;;;;-0.75;76.22;98524.00;5031118;27;102698;-80
2023/02/26 06:52:13;;;;;;;3.27;2.33;;;;;;;-0.53;75.53;98529.41;5026924;27;103319;-73
2023/02/26 06:54:42;;;;;;;3.00;1.97;;;;;;;-0.31;75.63;98536.47;5026844;27;103278;-73
2023/02/26 06:57:10;;;;;;;2.53;2.00;;;;;;;-0.20;74.65;98537.00;5032993;27;103654;-73
2023/02/26 06:59:38;;;;;;;3.40;2.20;;;;;;;-0.40;75.49;98548.91;5027092;27;102676;-71
2023/02/26 07:02:06;;;;;;;4.57;2.27;;;;;;;-0.21;74.58;98550.03;5032968;27;102928;-73
2023/02/26 07:04:36;;;;;;;4.37;2.20;;;;;;;-0.16;75.07;98553.31;5024331;27;103214;-74
2023/02/26 07:07:04;;;;;;;3.17;2.00;;;;;;;-0.08;74.58;98546.97;5028981;27;103778;-73
2023/02/26 07:09:32;;;;;;;3.53;2.00;;;;;;;-0.10;75.03;98553.13;5023666;27;103069;-73
2023/02/26 07:12:01;;;;;;;3.17;2.17;;;;;;;-0.22;74.85;98550.91;5023644;27;104238;-74
2023/02/26 07:14:28;;;;;;;3.40;1.93;;;;;;;-0.48;75.80;98554.34;5021637;27;105012;-74
2023/02/26 07:16:56;;;;;;;4.27;2.17;;;;;;;0.10;74.48;98553.34;5022353;27;102568;-75
2023/02/26 07:19:24;;;;;;;3.50;2.33;;;;;;;0.00;74.90;98549.34;5030316;27;102906;-73
2023/02/26 07:21:53;;;;;;;5.37;2.00;;;;;;;0.16;74.34;98550.53;5033586;27;102976;-76
2023/02/26 07:24:21;;;;;;;5.43;2.30;;;;;;;-0.24;74.89;98561.34;5026185;27;104383;-81
2023/02/26 07:26:49;;;;;;;4.00;1.97;;;;;;;-0.17;75.04;98557.66;5031285;27;102642;-79
2023/02/26 07:29:19;;;;;;;3.43;1.77;;;;;;;-0.23;75.33;98564.81;5029122;27;104410;-87
2023/02/26 07:31:47;;;;;;;3.63;1.90;;;;;;;0.12;74.59;98564.50;5052703;27;103285;-87
2023/02/26 07:34:15;;;;;;;3.97;2.67;;;;;;;-0.06;74.74;98562.53;5027648;27;103198;-73
2023/02/26 07:36:42;;;;;;;2.13;1.93;;;;;;;0.11;74.59;98560.25;5031506;27;102886;-75
2023/02/26 07:39:11;;;;;;;3.10;2.07;;;;;;;0.07;74.63;98576.81;5028859;27;105504;-75
2023/02/26 07:41:38;;;;;;;5.70;2.70;;;;;;;0.10;73.70;98574.13;5034960;27;103953;-76
2023/02/26 07:44:14;;;;;;;3.27;2.00;;;;;;;-0.01;74.56;98579.66;5029565;27;105411;-75
2023/02/26 07:46:43;;;;;;;4.63;1.90;;;;;;;-0.23;75.21;98578.66;5029864;27;102953;-78
2023/02/26 07:49:11;;;;;;;2.47;1.70;;;;;;;0.16;74.61;98591.25;5026681;27;102696;-78
2023/02/26 07:51:39;;;;;;;3.93;1.77;;;;;;;0.07;75.01;98584.59;5031776;27;104330;-78
2023/02/26 07:54:07;;;;;;;3.63;1.93;;;;;;;0.08;75.42;98588.91;5027272;27;103212;-78
2023/02/26 07:56:35;;;;;;;3.27;2.47;;;;;;;0.40;74.37;98591.28;5031971;27;102614;-78
2023/02/26 07:59:03;;;;;;;4.73;2.20;;;;;;;0.81;74.06;98589.03;5027832;27;102740;-77
2023/02/26 08:01:30;;;;;;;4.97;1.83;;;;;;;0.30;74.82;98595.09;5033214;27;103264;-78
2023/02/26 08:04:03;;;;;;;3.90;1.90;;;;;;;0.41;74.42;98587.81;5033632;27;104276;-79
2023/02/26 08:06:31;;;;;;;2.00;1.80;;;;;;;0.63;74.63;98582.72;5023438;27;102695;-79
2023/02/26 08:08:59;;;;;;;4.70;1.90;;;;;;;0.49;73.44;98593.59;5025628;27;103926;-78
2023/02/26 08:11:26;;;;;;;3.63;1.90;;;;;;;0.00;73.12;98596.09;5026014;27;103529;-79
2023/02/26 08:13:54;;;;;;;3.27;1.60;;;;;;;0.37;73.67;98588.78;5029274;27;103232;-79
2023/02/26 08:16:22;;;;;;;2.83;1.60;;;;;;;0.12;73.18;98590.50;5025125;27;102638;-78
2023/02/26 08:18:51;;;;;;;4.33;2.00;;;;;;;0.85;73.14;98588.00;5033167;27;104130;-79
2023/02/26 08:21:20;;;;;;;4.17;2.10;;;;;;;0.62;72.94;98590.59;5029303;27;103224;-79
2023/02/26 08:23:48;;;;;;;4.77;2.00;;;;;;;0.64;72.66;98591.38;5026238;27;103275;-79
2023/02/26 08:26:16;;;;;;;3.53;1.67;;;;;;;0.53;73.15;98594.34;5033085;27;102704;-79
2023/02/26 08:28:45;;;;;;;3.60;1.87;;;;;;;0.28;73.20;98609.06;5024323;27;103777;-80
2023/02/26 08:31:13;;;;;;;2.37;1.80;;;;;;;0.23;73.51;98600.53;5023904;27;104074;-81
2023/02/26 08:33:44;;;;;;;4.60;1.50;;;;;;;0.69;72.78;98607.66;5024050;27;102568;-80
2023/02/26 08:36:13;;;;;;;3.23;1.70;;;;;;;0.45;73.40;98609.34;5021459;27;102587;-78
2023/02/26 08:38:42;;;;;;;2.73;1.63;;;;;;;1.69;70.61;98604.84;5036966;27;103071;-80
2023/02/26 08:41:10;;;;;;;3.97;1.80;;;;;;;1.55;69.45;98602.75;5025535;27;103251;-79
2023/02/26 08:43:41;;;;;;;4.80;1.83;;;;;;;1.20;70.18;98611.03;5033626;27;103161;-78
2023/02/26 08:46:09;;;;;;;6.07;1.70;;;;;;;1.81;69.23;98600.91;5023491;27;102672;-80
2023/02/26 08:48:37;;;;;;;2.33;1.27;;;;;;;1.73;68.95;98601.22;5028801;27;102928;-80
2023/02/26 08:51:07;;;;;;;4.63;1.67;;;;;;;1.63;69.91;98600.72;5023663;27;103229;-81
2023/02/26 08:53:38;;;;;;;3.47;1.30;;;;;;;1.87;70.23;98609.34;5028026;27;103198;-81
2023/02/26 08:56:08;;;;;;;3.97;1.73;;;;;;;1.68;69.46;98614.41;5025761;27;102728;-82
2023/02/26 08:58:35;;;;;;;2.50;1.60;;;;;;;1.50;70.64;98620.31;5028540;27;102859;-78
2023/02/26 09:01:03;;;;;;;2.03;1.70;;;;;;;1.33;72.97;98627.91;5030780;27;103370;-79
2023/02/26 09:03:31;;;;;;;2.90;1.40;;;;;;;1.21;73.33;98627.50;5025486;27;103194;-79
2023/02/26 09:05:59;;;;;;;1.90;1.50;;;;;;;1.11;73.53;98626.97;5022316;27;102673;-82
2023/02/26 09:08:27;;;;;;;2.80;1.40;;;;;;;0.69;74.04;98633.66;5023361;27;103568;-82
2023/02/26 09:10:59;;;;;;;2.30;1.70;;;;;;;0.93;75.12;98627.59;5030358;27;103732;-79
2023/02/26 09:13:29;;;;;;;1.40;1.30;;;;;;;0.39;75.75;98641.56;5026759;27;104318;-83
2023/02/26 09:15:57;;;;;;;3.50;1.73;;;;;;;0.98;74.29;98630.94;5023360;27;102702;-82
2023/02/26 09:18:25;;;;;;;2.60;1.40;;;;;;;0.94;75.03;98637.13;5043485;27;102693;-83
2023/02/26 09:20:53;;;;;;;1.97;1.37;;;;;;;0.98;74.29;98638.72;5030779;27;104417;-83
2023/02/26 09:23:21;;;;;;;3.37;1.60;;;;;;;0.69;75.29;98644.06;5026067;27;103337;-84
2023/02/26 09:25:53;;;;;;;2.93;1.43;;;;;;;0.86;74.94;98641.75;5029527;27;102669;-83
2023/02/26 09:28:21;;;;;;;2.93;1.17;;;;;;;0.75;75.17;98644.72;5027757;27;102632;-83
2023/02/26 09:30:53;;;;;;;3.13;1.63;;;;;;;0.92;75.30;98644.13;5029395;27;103267;-82
2023/02/26 09:33:21;;;;;;;1.77;1.40;;;;;;;0.31;76.62;98653.97;5039688;27;103105;-83
2023/02/26 09:35:50;;;;;;;1.90;1.70;;;;;;;0.47;76.62;98657.78;5020409;27;102548;-84
2023/02/26 09:38:19;;;;;;;3.50;1.60;;;;;;;0.77;76.48;98662.84;5024325;27;102835;-83
2023/02/26 09:40:51;;;;;;;2.97;1.37;;;;;;;0.84;76.49;98656.56;5022633;27;103288;-86
2023/02/26 09:43:50;;;;;;;3.80;1.60;;;;;;;0.52;76.99;98662.81;5033576;27;103887;-84
2023/02/26 09:46:30;;;;;;;3.27;1.50;;;;;;;1.21;75.93;98663.94;5034280;27;102709;-85
2023/02/26 09:49:07;;;;;;;2.83;1.60;;;;;;;0.83;77.04;98673.06;5042062;27;102635;-84
2023/02/26 09:51:36;;;;;;;2.80;1.70;;;;;;;0.78;76.44;98681.03;5026143;27;104134;-86
2023/02/26 09:54:14;;;;;;;3.40;1.80;;;;;;;0.96;76.46;98685.59;5031039;27;103400;-86
2023/02/26 09:56:44;;;;;;;2.83;1.70;;;;;;;0.81;77.54;98685.28;5020510;27;102594;-85
2023/02/26 09:59:12;;;;;;;2.57;1.73;;;;;;;0.88;77.53;98677.19;5028589;27;104038;-85
2023/02/26 10:01:53;;;;;;;4.77;1.80;;;;;;;0.67;77.97;98679.69;5025259;27;104374;-85
2023/02/26 10:04:34;;;;;;;2.63;1.43;;;;;;;0.87;77.95;98680.69;5034166;27;102715;-86
2023/02/26 10:07:13;;;;;;;3.10;1.47;;;;;;;0.70;78.58;98688.22;5036960;27;102767;-85
2023/02/26 10:09:53;;;;;;;3.10;1.97;;;;;;;0.62;77.86;98689.38;5030657;27;102985;-83
2023/02/26 10:12:24;;;;;;;2.23;1.70;;;;;;;0.71;79.55;98694.25;5020837;27;103985;-85
2023/02/26 10:14:58;;;;;;;3.70;2.00;;;;;;;0.87;79.14;98695.47;5023024;27;103200;-84
2023/02/26 10:17:34;;;;;;;2.80;1.67;;;;;;;0.97;78.48;98696.84;5027853;27;102693;-85
2023/02/26 10:20:06;;;;;;;2.67;1.90;;;;;;;1.08;77.79;98699.94;5027098;27;102636;-85
2023/02/26 10:22:40;;;;;;;3.97;1.77;;;;;;;1.02;77.52;98700.16;5037999;27;103260;-85
2023/02/26 10:25:12;;;;;;;2.93;1.60;;;;;;;0.82;76.50;98694.75;5036659;27;103737;-86
2023/02/26 10:27:52;;;;;;;1.53;1.33;;;;;;;1.05;75.74;98705.25;5032679;27;103383;-86
2023/02/26 10:30:30;;;;;;;3.43;1.33;;;;;;;0.98;74.81;98695.97;5033190;27;102600;-86
2023/02/26 10:33:04;;;;;;;3.63;1.37;;;;;;;1.54;74.37;98700.03;5025329;27;104261;-72
2023/02/26 10:35:37;;;;;;;2.33;1.27;;;;;;;1.56;73.61;98694.75;5035254;27;104198;-71
2023/02/26 10:38:11;;;;;;;3.27;1.70;;;;;;;1.73;73.49;98698.47;5030731;27;102724;-75
2023/02/26 10:40:44;;;;;;;2.87;1.47;;;;;;;1.86;73.08;98706.66;5028622;27;103096;-76
2023/02/26 10:43:18;;;;;;;2.77;1.30;;;;;;;1.62;71.87;98695.41;5031969;27;103341;-86
2023/02/26 10:45:59;;;;;;;2.00;1.37;;;;;;;2.25;70.90;98693.84;5037849;27;103702;-86
2023/02/26 10:48:42;;;;;;;1.57;1.27;;;;;;;1.94;71.48;98704.59;5032909;27;102823;-88
2023/02/26 10:51:13;;;;;;;1.60;1.17;;;;;;;1.92;72.63;98695.16;5025713;27;104087;-87
2023/02/26 10:53:45;;;;;;;1.50;1.20;;;;;;;1.56;71.39;98707.78;5027736;27;104168;-87
2023/02/26 10:56:16;;;;;;;1.60;1.30;;;;;;;1.31;72.55;98713.00;5030795;27;103211;-81
2023/02/26 10:58:45;;;;;;;1.53;1.17;;;;;;;1.50;72.88;98708.84;5029525;27;103569;-82
2023/02/26 11:01:16;;;;;;;1.90;1.27;;;;;;;1.63;73.44;98714.44;5037771;27;103961;-81
2023/02/26 11:03:48;;;;;;;2.50;1.37;;;;;;;1.21;73.20;98718.59;5035943;27;103550;-81
2023/02/26 11:06:21;;;;;;;1.40;1.10;;;;;;;1.08;72.68;98715.56;5036631;27;103177;-84
2023/02/26 11:08:52;;;;;;;1.70;1.20;;;;;;;1.32;73.48;98709.47;5032132;27;102794;-80
2023/02/26 11:11:45;;;;;;;2.63;1.50;;;;;;;1.25;74.17;98723.63;5035742;27;102712;-83
2023/02/26 11:14:15;;;;;;;2.03;1.10;;;;;;;1.04;72.21;98724.34;5027551;27;114665;-83
2023/02/26 11:16:47;;;;;;;1.77;1.37;;;;;;;1.40;73.03;98711.84;5012764;27;103161;-76
2023/02/26 11:19:24;;;;;;;2.77;1.17;;;;;;;1.55;71.16;98709.53;5028555;27;103159;-76
2023/02/26 11:21:51;;;;;;;1.93;1.20;;;;;;;1.92;70.90;98706.44;5026110;27;102709;-76
2023/02/26 11:24:28;;;;;;;2.50;1.20;;;;;;;1.98;70.51;98707.94;5024941;27;103123;-80
2023/02/26 11:27:01;;;;;;;1.23;1.13;;;;;;;2.84;67.14;98696.66;5028932;27;103196;-86
2023/02/26 11:29:36;;;;;;;1.90;1.30;;;;;;;2.84;68.36;98694.91;5015410;27;102779;-85
2023/02/26 11:32:05;;;;;;;9.40;4.40;;;;;;;2.27;68.96;98707.69;5027935;27;102856;-86
2023/02/26 11:34:35;;;;;;;2.67;1.40;;;;;;;2.25;68.37;98696.47;5021751;27;103355;-85
2023/02/26 11:37:05;;;;;;;1.70;1.00;;;;;;;2.19;69.98;98704.53;5024448;27;103269;-87
2023/02/26 11:39:37;;;;;;;1.13;1.07;;;;;;;2.43;69.61;98690.53;5022602;27;102510;-84
2023/02/26 11:42:05;;;;;;;1.80;0.90;;;;;;;2.64;69.04;98700.09;5023184;27;102862;-86
2023/02/26 11:44:37;;;;;;;1.03;0.93;;;;;;;2.31;68.56;98698.84;5037182;27;103440;-86
2023/02/26 11:47:11;;;;;;;1.13;1.03;;;;;;;1.91;69.12;98703.91;5018515;27;103221;-85
2023/02/26 11:49:45;;;;;;;1.27;1.17;;;;;;;1.75;70.17;98699.25;5028476;27;102607;-86
2023/02/26 11:52:21;;;;;;;1.30;1.20;;;;;;;1.96;69.50;98708.03;5019310;27;103149;-85